EEPUEETN

Guest
Details From EEPU - PARNU
To EETN - TALLINN
Flight Number -
Tags generated
Created
Modified
Stats Distance 61 nm / 113 km
Max Altitude 9,500 ft / 2,896 m
Waypoints 4
Social Downloads 1
Likes 0
Share VATSIM

Download

Looking for another format? Having issues loading an existing format? Contact us
Advertisement - Login to hide

Notes

Basic altitude profile: - Ascent Rate: 1000ft/min - Ascent Speed: 250kts - Cruise Altitude: 35000ft - Cruise Speed: 420kts - Descent Rate: 1500ft/min - Descent Speed: 250kts Options: - Use NATs: yes - Use PACOTS: yes - Use low airways: yes - Use high airways: no

Route

EEPU KEMET M857 TLL EETN

ID Type Via Altitude Latitude Longitude Leg Dist Tot Dist Heading (true) Name
O EEPU APT - 0 ft / 0 m 58.41879˚ 24.47282˚ - 0 nm - PARNU
KEMET FIX - 6,600 ft / 2,012 m 58.72250˚ 24.58694˚ 18 nm 18 nm 11° / 11° -
TLL VOR M857 (AWY-LO) 9,500 ft / 2,896 m 59.41133˚ 24.83844˚ 42 nm 60 nm 11° / 11° TALLINN VOR-DME
O EETN APT - 0 ft / 0 m 59.41326˚ 24.83280˚ 0 nm 60 nm 304° / 304° TALLINN

Altitude Profile

Advertisement - Login to hide

EEPU

Details ICAO EEPU (EPU)
Name PARNU
Region Estonia
Timezone Europe/Tallinn (UTC+2.0)
Stats Elevation 47 ft / 14 m (AMSL)
Location 58.418794° 24.472822°
Runways 1
Magnetic Variation 8.221° E

METAR

EEPU 110650Z 10005KT 040V170 CAVOK M03/M04 Q0998

Decode

TAF

Not found

Departure Runways

ID Width Length Bearing (true) Bearing (mag) Surface Threshold Offset Overrun Length
03 148 ft / 45 m 8,122 ft / 2,475 m 35.28° 27.06° Concrete 0 ft / 0 m 0 ft / 0 m
21 148 ft / 45 m 8,122 ft / 2,475 m 215.30° 207.08° Concrete 0 ft / 0 m 0 ft / 0 m

EETN

Details ICAO EETN (TLL)
Name TALLINN
Region Estonia
Timezone Europe/Tallinn (UTC+2.0)
Stats Elevation 131 ft / 40 m (AMSL)
Location 59.413257° 24.832803°
Runways 1
Magnetic Variation 8.634° E

METAR

EETN 110720Z 12006KT CAVOK M04/M04 Q0999 R08/310195 NOSIG

Decode

TAF

TAF TAF EETN 110530Z 1106/1206 14009KT 9999 BKN025 PROB40 TEMPO 1106/1109 BKN007 BECMG 1115/1117 BKN010 OVC020 PROB40 TEMPO 1118/1122 4000 SN TEMPO 1122/1206 2000 SN BKN006 OVC012

Decode

Destination Runways

ID Width Length Bearing (true) Bearing (mag) Surface Threshold Offset Overrun Length
08 148 ft / 45 m 10,023 ft / 3,055 m 90.24° 81.61° Asphalt 820 ft / 250 m 0 ft / 0 m
26 148 ft / 45 m 10,023 ft / 3,055 m 270.28° 261.65° Asphalt 0 ft / 0 m 184 ft / 56 m

Approach Navaids

Runway Type Ident Frequency Range Bearing (true) Bearing (mag) Slope Elevation
08 Localiser IIB 111.70 MHz 18 nm / 33 km 90.33° 81.70° - 131 ft / 40 m (AMSL)
08 Glidescope IIB 111.70 MHz 10 nm / 19 km 90.26° 81.63° 3.00° 131 ft / 40 m (AMSL)
26 Localiser ILK 110.30 MHz 18 nm / 33 km 270.24° 261.61° - 131 ft / 40 m (AMSL)
26 Glidescope ILK 110.30 MHz 10 nm / 19 km 270.26° 261.63° 3.00° 131 ft / 40 m (AMSL)

Popular Alternatives